sensor_id;sensor_type;location;lat;lon;timestamp;pressure;altitude;pressure_sealevel;temperature;humidity
61961;BME280;47923;42.506;24.192;2023-02-11T00:00:11;97092.31;;;-11.48;75.60
61961;BME280;47923;42.506;24.192;2023-02-11T00:02:37;97090.31;;;-11.61;76.43
61961;BME280;47923;42.506;24.192;2023-02-11T00:05:03;97179.94;;;-11.09;76.33
61961;BME280;47923;42.506;24.192;2023-02-11T00:07:29;97070.47;;;-11.62;74.72
61961;BME280;47923;42.506;24.192;2023-02-11T00:09:55;97091.31;;;-11.47;74.83
61961;BME280;47923;42.506;24.192;2023-02-11T00:12:20;97106.97;;;-11.47;75.39
61961;BME280;47923;42.506;24.192;2023-02-11T00:14:46;96895.47;;;-13.00;75.29
61961;BME280;47923;42.506;24.192;2023-02-11T00:17:12;97131.25;;;-11.47;75.37
61961;BME280;47923;42.506;24.192;2023-02-11T00:19:37;96946.09;;;-12.65;74.96
61961;BME280;47923;42.506;24.192;2023-02-11T00:22:04;96990.97;;;-12.40;76.67
61961;BME280;47923;42.506;24.192;2023-02-11T00:24:29;96790.91;;;-13.48;77.62
61961;BME280;47923;42.506;24.192;2023-02-11T00:26:55;97138.38;;;-11.26;76.81
61961;BME280;47923;42.506;24.192;2023-02-11T00:29:20;96979.00;;;-12.34;77.13
61961;BME280;47923;42.506;24.192;2023-02-11T00:31:46;97138.38;;;-11.40;76.13
61961;BME280;47923;42.506;24.192;2023-02-11T00:34:12;97026.00;;;-12.65;77.15
61961;BME280;47923;42.506;24.192;2023-02-11T00:36:37;97179.22;;;-11.33;76.79
61961;BME280;47923;42.506;24.192;2023-02-11T00:39:03;97167.34;;;-11.35;76.40
61961;BME280;47923;42.506;24.192;2023-02-11T00:41:29;97169.97;;;-11.35;76.36
61961;BME280;47923;42.506;24.192;2023-02-11T00:43:54;97032.03;;;-12.27;75.67
61961;BME280;47923;42.506;24.192;2023-02-11T00:46:20;97170.03;;;-11.44;76.25
61961;BME280;47923;42.506;24.192;2023-02-11T00:48:46;96884.69;;;-13.26;76.27
61961;BME280;47923;42.506;24.192;2023-02-11T00:51:12;97068.72;;;-12.14;77.65
61961;BME280;47923;42.506;24.192;2023-02-11T00:53:38;96938.81;;;-12.84;78.00
61961;BME280;47923;42.506;24.192;2023-02-11T00:56:03;96932.72;;;-12.76;78.00
61961;BME280;47923;42.506;24.192;2023-02-11T00:58:29;96841.41;;;-13.42;78.77
61961;BME280;47923;42.506;24.192;2023-02-11T01:00:55;97158.69;;;-11.51;77.83
61961;BME280;47923;42.506;24.192;2023-02-11T01:03:21;97151.41;;;-11.55;78.12
61961;BME280;47923;42.506;24.192;2023-02-11T01:05:46;97070.06;;;-12.18;78.85
61961;BME280;47923;42.506;24.192;2023-02-11T01:08:12;97053.75;;;-12.35;78.98
61961;BME280;47923;42.506;24.192;2023-02-11T01:10:37;97158.38;;;-11.71;78.38
61961;BME280;47923;42.506;24.192;2023-02-11T01:13:03;97151.63;;;-11.80;78.19
61961;BME280;47923;42.506;24.192;2023-02-11T01:15:28;97164.97;;;-11.89;78.41
61961;BME280;47923;42.506;24.192;2023-02-11T01:17:54;97051.28;;;-12.51;78.18
61961;BME280;47923;42.506;24.192;2023-02-11T01:20:23;96814.25;;;-14.08;77.68
61961;BME280;47923;42.506;24.192;2023-02-11T01:22:48;96977.13;;;-13.01;78.12
61961;BME280;47923;42.506;24.192;2023-02-11T01:25:14;97008.81;;;-12.51;79.10
61961;BME280;47923;42.506;24.192;2023-02-11T01:27:40;97143.63;;;-11.78;78.56
61961;BME280;47923;42.506;24.192;2023-02-11T01:30:07;97146.16;;;-11.85;79.60
61961;BME280;47923;42.506;24.192;2023-02-11T01:32:33;97132.38;;;-11.93;79.79
61961;BME280;47923;42.506;24.192;2023-02-11T01:34:59;97129.38;;;-12.05;79.55
61961;BME280;47923;42.506;24.192;2023-02-11T01:37:25;96964.22;;;-13.17;80.48
61961;BME280;47923;42.506;24.192;2023-02-11T01:39:50;97130.84;;;-12.03;79.62
61961;BME280;47923;42.506;24.192;2023-02-11T01:42:18;97079.97;;;-12.36;80.54
61961;BME280;47923;42.506;24.192;2023-02-11T01:44:45;97123.09;;;-12.11;80.43
61961;BME280;47923;42.506;24.192;2023-02-11T01:47:13;97113.97;;;-11.92;79.90
61961;BME280;47923;42.506;24.192;2023-02-11T01:49:44;97067.06;;;-12.30;80.42
61961;BME280;47923;42.506;24.192;2023-02-11T01:52:20;97049.25;;;-12.41;79.58
61961;BME280;47923;42.506;24.192;2023-02-11T01:54:50;97120.59;;;-12.04;79.81
61961;BME280;47923;42.506;24.192;2023-02-11T01:57:37;97109.66;;;-12.22;80.23
61961;BME280;47923;42.506;24.192;2023-02-11T02:05:29;97122.00;;;-12.39;81.59
61961;BME280;47923;42.506;24.192;2023-02-11T02:10:34;97001.59;;;-13.10;80.65
61961;BME280;47923;42.506;24.192;2023-02-11T02:13:02;97086.69;;;-12.65;80.86
61961;BME280;47923;42.506;24.192;2023-02-11T02:15:32;97113.66;;;-12.35;81.16
61961;BME280;47923;42.506;24.192;2023-02-11T02:34:22;96979.34;;;-13.13;80.25
61961;BME280;47923;42.506;24.192;2023-02-11T02:37:04;96765.00;;;-14.56;79.38
61961;BME280;47923;42.506;24.192;2023-02-11T02:39:33;97116.50;;;-12.44;80.19
61961;BME280;47923;42.506;24.192;2023-02-11T02:42:00;97144.47;;;-12.38;80.23
61961;BME280;47923;42.506;24.192;2023-02-11T02:44:27;97112.31;;;-12.76;80.32
61961;BME280;47923;42.506;24.192;2023-02-11T02:46:52;97141.03;;;-12.62;80.35
61961;BME280;47923;42.506;24.192;2023-02-11T02:49:18;96857.53;;;-14.40;80.17
61961;BME280;47923;42.506;24.192;2023-02-11T03:04:52;96708.88;;;-15.27;79.50
61961;BME280;47923;42.506;24.192;2023-02-11T03:12:36;97079.47;;;-12.77;79.37
61961;BME280;47923;42.506;24.192;2023-02-11T03:15:04;97128.22;;;-12.48;79.04
61961;BME280;47923;42.506;24.192;2023-02-11T03:17:32;97127.31;;;-12.56;80.17
61961;BME280;47923;42.506;24.192;2023-02-11T03:20:01;96957.94;;;-13.77;79.69
61961;BME280;47923;42.506;24.192;2023-02-11T03:22:40;97146.28;;;-12.70;80.25
61961;BME280;47923;42.506;24.192;2023-02-11T03:25:07;97138.34;;;-12.76;80.25
61961;BME280;47923;42.506;24.192;2023-02-11T03:30:33;97140.38;;;-12.64;79.27
61961;BME280;47923;42.506;24.192;2023-02-11T03:33:41;97025.34;;;-13.36;78.27
61961;BME280;47923;42.506;24.192;2023-02-11T03:36:15;97140.28;;;-12.70;78.15
61961;BME280;47923;42.506;24.192;2023-02-11T03:38:47;96876.03;;;-14.35;78.43
61961;BME280;47923;42.506;24.192;2023-02-11T03:41:17;96968.72;;;-13.96;78.05
61961;BME280;47923;42.506;24.192;2023-02-11T03:43:48;97137.94;;;-12.65;77.91
61961;BME280;47923;42.506;24.192;2023-02-11T03:46:18;97144.63;;;-12.71;77.73
61961;BME280;47923;42.506;24.192;2023-02-11T03:48:48;97022.38;;;-13.64;78.27
61961;BME280;47923;42.506;24.192;2023-02-11T03:51:15;97141.09;;;-12.78;78.27
61961;BME280;47923;42.506;24.192;2023-02-11T03:53:43;97134.22;;;-12.71;77.54
61961;BME280;47923;42.506;24.192;2023-02-11T03:56:14;97145.97;;;-12.75;77.97
61961;BME280;47923;42.506;24.192;2023-02-11T03:58:44;97145.03;;;-12.82;78.55
61961;BME280;47923;42.506;24.192;2023-02-11T04:01:10;96888.91;;;-14.49;78.77
61961;BME280;47923;42.506;24.192;2023-02-11T04:03:36;97139.25;;;-12.92;79.42
61961;BME280;47923;42.506;24.192;2023-02-11T04:06:01;97135.75;;;-12.76;78.41
61961;BME280;47923;42.506;24.192;2023-02-11T04:08:27;97133.25;;;-12.70;78.57
61961;BME280;47923;42.506;24.192;2023-02-11T04:10:52;97124.22;;;-12.82;79.50
61961;BME280;47923;42.506;24.192;2023-02-11T04:13:18;97016.31;;;-13.56;78.85
61961;BME280;47923;42.506;24.192;2023-02-11T04:15:43;97126.56;;;-12.95;78.86
61961;BME280;47923;42.506;24.192;2023-02-11T04:18:09;97125.28;;;-12.99;79.92
61961;BME280;47923;42.506;24.192;2023-02-11T04:20:34;96894.81;;;-14.33;80.55
61961;BME280;47923;42.506;24.192;2023-02-11T04:23:00;96809.38;;;-14.82;80.31
61961;BME280;47923;42.506;24.192;2023-02-11T04:25:25;97139.66;;;-12.80;79.89
61961;BME280;47923;42.506;24.192;2023-02-11T04:27:51;97101.91;;;-13.16;79.25
61961;BME280;47923;42.506;24.192;2023-02-11T04:30:17;97136.09;;;-12.88;80.51
61961;BME280;47923;42.506;24.192;2023-02-11T04:32:42;96738.03;;;-15.33;80.07
61961;BME280;47923;42.506;24.192;2023-02-11T04:35:08;96952.69;;;-14.08;80.04
61961;BME280;47923;42.506;24.192;2023-02-11T04:37:33;97105.56;;;-12.94;79.47
61961;BME280;47923;42.506;24.192;2023-02-11T04:40:00;97033.41;;;-13.62;79.24
61961;BME280;47923;42.506;24.192;2023-02-11T04:42:25;96969.72;;;-14.05;79.55
61961;BME280;47923;42.506;24.192;2023-02-11T04:44:51;97134.84;;;-12.92;78.48
61961;BME280;47923;42.506;24.192;2023-02-11T04:47:16;96757.44;;;-15.21;78.82
61961;BME280;47923;42.506;24.192;2023-02-11T04:49:42;97117.31;;;-12.98;79.20
61961;BME280;47923;42.506;24.192;2023-02-11T04:52:07;97001.34;;;-13.93;79.24
61961;BME280;47923;42.506;24.192;2023-02-11T04:54:33;97120.88;;;-12.99;79.26
61961;BME280;47923;42.506;24.192;2023-02-11T04:56:58;97119.56;;;-12.95;79.47
61961;BME280;47923;42.506;24.192;2023-02-11T04:59:24;96915.31;;;-14.38;79.71
61961;BME280;47923;42.506;24.192;2023-02-11T05:01:49;97069.28;;;-13.49;80.12
61961;BME280;47923;42.506;24.192;2023-02-11T05:04:15;97079.81;;;-13.43;81.21
61961;BME280;47923;42.506;24.192;2023-02-11T05:06:40;97122.59;;;-13.14;81.15
61961;BME280;47923;42.506;24.192;2023-02-11T05:09:06;97107.69;;;-13.20;81.97
61961;BME280;47923;42.506;24.192;2023-02-11T05:11:32;97103.53;;;-13.15;82.39
61961;BME280;47923;42.506;24.192;2023-02-11T05:13:57;97110.03;;;-13.11;82.40
61961;BME280;47923;42.506;24.192;2023-02-11T05:16:23;97110.22;;;-13.12;81.69
61961;BME280;47923;42.506;24.192;2023-02-11T05:18:48;97106.97;;;-13.14;81.64
61961;BME280;47923;42.506;24.192;2023-02-11T05:21:16;97096.97;;;-13.25;81.28
61961;BME280;47923;42.506;24.192;2023-02-11T05:23:43;96991.81;;;-14.17;81.24
61961;BME280;47923;42.506;24.192;2023-02-11T05:26:10;97074.78;;;-13.52;80.87
61961;BME280;47923;42.506;24.192;2023-02-11T05:28:35;97109.16;;;-13.26;81.17
61961;BME280;47923;42.506;24.192;2023-02-11T05:31:01;97098.09;;;-13.20;80.70
61961;BME280;47923;42.506;24.192;2023-02-11T05:33:27;97116.72;;;-13.16;80.85
61961;BME280;47923;42.506;24.192;2023-02-11T05:35:58;97059.16;;;-13.44;80.41
61961;BME280;47923;42.506;24.192;2023-02-11T05:38:24;96905.38;;;-14.34;80.65
61961;BME280;47923;42.506;24.192;2023-02-11T05:40:50;97105.72;;;-12.95;81.25
61961;BME280;47923;42.506;24.192;2023-02-11T05:43:15;97109.22;;;-12.80;80.29
61961;BME280;47923;42.506;24.192;2023-02-11T05:45:41;97055.75;;;-13.14;79.24
61961;BME280;47923;42.506;24.192;2023-02-11T05:48:06;97029.34;;;-13.25;79.95
61961;BME280;47923;42.506;24.192;2023-02-11T05:50:31;97080.38;;;-13.01;79.61
61961;BME280;47923;42.506;24.192;2023-02-11T05:52:57;97073.53;;;-12.94;79.84
61961;BME280;47923;42.506;24.192;2023-02-11T05:55:22;97129.75;;;-12.54;78.88
61961;BME280;47923;42.506;24.192;2023-02-11T05:57:48;97112.09;;;-12.44;78.25
61961;BME280;47923;42.506;24.192;2023-02-11T06:00:13;96915.97;;;-13.65;77.31
61961;BME280;47923;42.506;24.192;2023-02-11T06:02:39;97111.91;;;-12.42;77.25
61961;BME280;47923;42.506;24.192;2023-02-11T06:05:05;96989.19;;;-12.85;76.32
61961;BME280;47923;42.506;24.192;2023-02-11T06:07:31;96772.63;;;-14.00;74.49
61961;BME280;47923;42.506;24.192;2023-02-11T06:09:56;97120.81;;;-11.61;73.96
61961;BME280;47923;42.506;24.192;2023-02-11T06:12:22;96433.53;;;-15.83;73.33
61961;BME280;47923;42.506;24.192;2023-02-11T06:14:47;96971.88;;;-12.17;73.87
61961;BME280;47923;42.506;24.192;2023-02-11T06:17:13;97123.34;;;-11.09;73.71
61961;BME280;47923;42.506;24.192;2023-02-11T06:19:38;96631.91;;;-14.04;72.59
61961;BME280;47923;42.506;24.192;2023-02-11T06:22:04;97084.38;;;-11.10;72.70
61961;BME280;47923;42.506;24.192;2023-02-11T06:24:29;97044.88;;;-11.07;72.20
61961;BME280;47923;42.506;24.192;2023-02-11T06:26:54;97117.25;;;-10.44;71.61
61961;BME280;47923;42.506;24.192;2023-02-11T06:29:20;97129.91;;;-10.26;71.96
61961;BME280;47923;42.506;24.192;2023-02-11T06:31:45;97114.38;;;-10.06;71.83
61961;BME280;47923;42.506;24.192;2023-02-11T06:34:11;97090.69;;;-9.77;71.21
61961;BME280;47923;42.506;24.192;2023-02-11T06:36:38;97111.88;;;-6.57;65.40
61961;BME280;47923;42.506;24.192;2023-02-11T06:39:04;97068.97;;;-3.58;52.48
61961;BME280;47923;42.506;24.192;2023-02-11T06:41:29;96946.44;;;-1.59;43.65
61961;BME280;47923;42.506;24.192;2023-02-11T06:43:55;96447.34;;;-3.97;39.83
61961;BME280;47923;42.506;24.192;2023-02-11T06:46:21;97107.56;;;2.15;36.39
61961;BME280;47923;42.506;24.192;2023-02-11T06:48:46;97098.25;;;2.94;33.30
61961;BME280;47923;42.506;24.192;2023-02-11T06:51:13;97086.66;;;3.40;31.35
61961;BME280;47923;42.506;24.192;2023-02-11T06:53:41;97079.25;;;3.81;30.51
61961;BME280;47923;42.506;24.192;2023-02-11T06:56:13;96977.44;;;3.28;31.09
61961;BME280;47923;42.506;24.192;2023-02-11T06:58:39;97089.41;;;5.02;30.04
61961;BME280;47923;42.506;24.192;2023-02-11T07:01:10;97085.00;;;5.82;29.71
61961;BME280;47923;42.506;24.192;2023-02-11T07:03:37;97082.88;;;6.60;27.71
61961;BME280;47923;42.506;24.192;2023-02-11T07:06:05;97073.75;;;6.75;27.05
61961;BME280;47923;42.506;24.192;2023-02-11T07:08:35;97082.22;;;4.29;28.73
61961;BME280;47923;42.506;24.192;2023-02-11T07:11:01;97078.72;;;4.33;29.67
61961;BME280;47923;42.506;24.192;2023-02-11T07:13:32;97072.38;;;5.16;28.35
61961;BME280;47923;42.506;24.192;2023-02-11T07:15:58;97076.81;;;6.35;28.05
61961;BME280;47923;42.506;24.192;2023-02-11T07:18:23;97069.97;;;6.05;26.62
61961;BME280;47923;42.506;24.192;2023-02-11T07:20:48;97065.19;;;6.40;26.94
61961;BME280;47923;42.506;24.192;2023-02-11T07:23:14;97069.25;;;6.00;27.08
61961;BME280;47923;42.506;24.192;2023-02-11T07:25:40;97039.91;;;5.85;28.18
61961;BME280;47923;42.506;24.192;2023-02-11T07:28:05;97075.13;;;6.21;27.51
61961;BME280;47923;42.506;24.192;2023-02-11T07:30:30;97078.25;;;6.47;27.85
61961;BME280;47923;42.506;24.192;2023-02-11T07:32:56;97058.50;;;7.03;26.87
61961;BME280;47923;42.506;24.192;2023-02-11T07:35:21;97054.38;;;7.52;27.24
61961;BME280;47923;42.506;24.192;2023-02-11T07:37:47;96782.03;;;6.10;25.59
61961;BME280;47923;42.506;24.192;2023-02-11T07:40:12;97053.28;;;7.66;26.20
61961;BME280;47923;42.506;24.192;2023-02-11T07:42:37;96994.13;;;8.25;26.02
61961;BME280;47923;42.506;24.192;2023-02-11T07:45:05;97018.88;;;9.34;25.17
61961;BME280;47923;42.506;24.192;2023-02-11T07:47:30;96821.59;;;8.92;24.70
61961;BME280;47923;42.506;24.192;2023-02-11T07:49:56;97043.94;;;11.51;22.22
61961;BME280;47923;42.506;24.192;2023-02-11T07:52:21;97043.53;;;10.59;22.99
61961;BME280;47923;42.506;24.192;2023-02-11T07:54:47;96796.28;;;9.28;22.94
61961;BME280;47923;42.506;24.192;2023-02-11T07:57:12;96839.91;;;9.47;22.45
61961;BME280;47923;42.506;24.192;2023-02-11T07:59:38;97039.06;;;10.89;22.61
61961;BME280;47923;42.506;24.192;2023-02-11T08:02:03;97032.78;;;12.11;21.84
61961;BME280;47923;42.506;24.192;2023-02-11T08:04:29;97004.88;;;13.43;20.48
61961;BME280;47923;42.506;24.192;2023-02-11T08:06:55;97018.22;;;13.36;20.10
61961;BME280;47923;42.506;24.192;2023-02-11T08:09:23;97019.66;;;13.09;22.11
61961;BME280;47923;42.506;24.192;2023-02-11T08:11:48;96988.53;;;12.94;21.20
61961;BME280;47923;42.506;24.192;2023-02-11T08:14:14;96989.41;;;12.53;21.17
61961;BME280;47923;42.506;24.192;2023-02-11T08:16:40;97021.22;;;12.44;22.49
61961;BME280;47923;42.506;24.192;2023-02-11T08:19:09;96978.31;;;12.79;20.91
61961;BME280;47923;42.506;24.192;2023-02-11T08:21:35;96954.69;;;12.34;20.90
61961;BME280;47923;42.506;24.192;2023-02-11T08:24:01;97015.66;;;13.07;20.78
61961;BME280;47923;42.506;24.192;2023-02-11T08:26:29;97009.41;;;13.39;19.91
61961;BME280;47923;42.506;24.192;2023-02-11T08:28:56;97010.09;;;14.50;20.29
61961;BME280;47923;42.506;24.192;2023-02-11T08:31:26;97009.56;;;15.79;17.98
61961;BME280;47923;42.506;24.192;2023-02-11T08:33:52;96941.88;;;14.71;18.64
61961;BME280;47923;42.506;24.192;2023-02-11T08:36:21;97006.75;;;16.11;17.76
61961;BME280;47923;42.506;24.192;2023-02-11T08:38:48;96994.47;;;16.75;17.67
61961;BME280;47923;42.506;24.192;2023-02-11T08:41:15;97003.03;;;16.19;17.08
61961;BME280;47923;42.506;24.192;2023-02-11T08:43:45;96964.63;;;15.41;17.05
61961;BME280;47923;42.506;24.192;2023-02-11T08:46:13;96863.69;;;13.68;18.45
61961;BME280;47923;42.506;24.192;2023-02-11T08:48:39;96999.69;;;15.11;18.08
61961;BME280;47923;42.506;24.192;2023-02-11T08:51:06;96771.56;;;13.75;17.49
61961;BME280;47923;42.506;24.192;2023-02-11T08:53:32;96997.41;;;15.13;17.36
61961;BME280;47923;42.506;24.192;2023-02-11T08:55:58;96962.78;;;14.82;17.95
61961;BME280;47923;42.506;24.192;2023-02-11T08:58:24;97006.75;;;14.16;18.33
61961;BME280;47923;42.506;24.192;2023-02-11T09:00:49;96888.03;;;15.59;17.63
61961;BME280;47923;42.506;24.192;2023-02-11T09:03:15;96993.34;;;14.91;18.60
61961;BME280;47923;42.506;24.192;2023-02-11T09:05:42;96967.41;;;15.92;18.19
61961;BME280;47923;42.506;24.192;2023-02-11T09:08:08;96999.91;;;17.17;16.00
61961;BME280;47923;42.506;24.192;2023-02-11T09:10:33;96919.50;;;16.92;16.68
61961;BME280;47923;42.506;24.192;2023-02-11T09:12:59;96921.63;;;16.79;16.27
61961;BME280;47923;42.506;24.192;2023-02-11T09:15:25;96965.34;;;16.63;16.27
61961;BME280;47923;42.506;24.192;2023-02-11T09:17:50;96853.84;;;15.10;15.59
61961;BME280;47923;42.506;24.192;2023-02-11T09:20:16;96994.38;;;14.87;16.69
61961;BME280;47923;42.506;24.192;2023-02-11T09:22:42;96992.66;;;16.82;15.58
61961;BME280;47923;42.506;24.192;2023-02-11T09:25:07;96938.31;;;16.16;13.22
61961;BME280;47923;42.506;24.192;2023-02-11T09:27:33;96923.94;;;15.99;13.74
61961;BME280;47923;42.506;24.192;2023-02-11T09:29:58;96983.06;;;17.34;13.45
61961;BME280;47923;42.506;24.192;2023-02-11T09:32:24;96976.31;;;16.67;14.43
61961;BME280;47923;42.506;24.192;2023-02-11T09:34:49;96920.00;;;17.20;14.75
61961;BME280;47923;42.506;24.192;2023-02-11T09:37:15;96954.34;;;16.59;13.78
61961;BME280;47923;42.506;24.192;2023-02-11T09:39:40;96974.50;;;15.97;15.69
61961;BME280;47923;42.506;24.192;2023-02-11T09:45:17;96955.59;;;16.43;15.50
61961;BME280;47923;42.506;24.192;2023-02-11T09:47:54;96961.31;;;15.16;15.96
61961;BME280;47923;42.506;24.192;2023-02-11T09:50:33;96667.47;;;13.71;15.85
61961;BME280;47923;42.506;24.192;2023-02-11T09:53:13;96838.22;;;15.78;14.89
61961;BME280;47923;42.506;24.192;2023-02-11T09:55:45;96939.34;;;15.92;16.05
61961;BME280;47923;42.506;24.192;2023-02-11T09:58:19;96791.59;;;14.58;16.44
61961;BME280;47923;42.506;24.192;2023-02-11T10:03:51;96920.13;;;15.18;15.83
61961;BME280;47923;42.506;24.192;2023-02-11T10:19:16;96885.06;;;16.41;13.32
61961;BME280;47923;42.506;24.192;2023-02-11T10:24:28;96892.75;;;17.01;13.13
61961;BME280;47923;42.506;24.192;2023-02-11T10:26:54;96874.44;;;16.78;13.30
61961;BME280;47923;42.506;24.192;2023-02-11T10:29:37;96776.34;;;16.89;14.54
61961;BME280;47923;42.506;24.192;2023-02-11T10:32:26;96825.19;;;15.67;14.75
61961;BME280;47923;42.506;24.192;2023-02-11T10:34:59;96854.22;;;17.32;15.78
61961;BME280;47923;42.506;24.192;2023-02-11T10:37:25;96853.66;;;18.36;13.25
61961;BME280;47923;42.506;24.192;2023-02-11T10:39:51;96818.44;;;16.65;14.01
61961;BME280;47923;42.506;24.192;2023-02-11T10:42:17;96809.03;;;15.78;14.27
61961;BME280;47923;42.506;24.192;2023-02-11T10:44:54;96837.97;;;15.47;15.87
61961;BME280;47923;42.506;24.192;2023-02-11T10:47:23;96828.50;;;16.38;14.56
61961;BME280;47923;42.506;24.192;2023-02-11T10:49:49;96812.53;;;16.17;14.63
61961;BME280;47923;42.506;24.192;2023-02-11T10:52:19;96822.22;;;16.80;13.67
61961;BME280;47923;42.506;24.192;2023-02-11T10:55:25;96814.13;;;16.64;14.26
61961;BME280;47923;42.506;24.192;2023-02-11T11:03:04;96808.38;;;16.23;14.24
61961;BME280;47923;42.506;24.192;2023-02-11T11:05:36;96811.88;;;15.46;14.23
61961;BME280;47923;42.506;24.192;2023-02-11T11:08:09;96801.06;;;15.50;14.82
61961;BME280;47923;42.506;24.192;2023-02-11T11:10:42;96791.03;;;14.68;14.88
61961;BME280;47923;42.506;24.192;2023-02-11T11:18:37;96783.81;;;14.44;14.85
61961;BME280;47923;42.506;24.192;2023-02-11T11:23:51;96702.06;;;15.04;14.83
61961;BME280;47923;42.506;24.192;2023-02-11T11:26:18;96770.72;;;14.97;14.97
61961;BME280;47923;42.506;24.192;2023-02-11T11:29:01;96748.13;;;15.67;14.57
61961;BME280;47923;42.506;24.192;2023-02-11T11:31:36;96544.09;;;14.97;14.37
61961;BME280;47923;42.506;24.192;2023-02-11T11:34:22;96736.09;;;16.33;13.88
61961;BME280;47923;42.506;24.192;2023-02-11T11:36:49;96750.31;;;16.46;14.73
61961;BME280;47923;42.506;24.192;2023-02-11T11:39:22;96499.31;;;13.46;14.62
61961;BME280;47923;42.506;24.192;2023-02-11T11:41:56;96755.94;;;14.31;15.58
61961;BME280;47923;42.506;24.192;2023-02-11T11:44:31;96746.13;;;14.43;16.41
61961;BME280;47923;42.506;24.192;2023-02-11T11:47:17;96727.19;;;14.62;16.87
61961;BME280;47923;42.506;24.192;2023-02-11T11:52:45;96741.06;;;14.57;15.93
61961;BME280;47923;42.506;24.192;2023-02-11T11:55:39;96733.59;;;14.54;16.41
61961;BME280;47923;42.506;24.192;2023-02-11T11:58:20;96732.69;;;14.02;16.58
61961;BME280;47923;42.506;24.192;2023-02-11T12:06:42;96719.78;;;12.02;18.92
61961;BME280;47923;42.506;24.192;2023-02-11T12:20:12;96705.91;;;9.86;20.38
61961;BME280;47923;42.506;24.192;2023-02-11T12:22:53;96590.91;;;9.08;20.69
61961;BME280;47923;42.506;24.192;2023-02-11T12:25:29;96665.28;;;9.01;21.29
61961;BME280;47923;42.506;24.192;2023-02-11T12:33:57;96691.16;;;8.27;24.60
61961;BME280;47923;42.506;24.192;2023-02-11T12:39:42;96602.94;;;7.59;24.59
61961;BME280;47923;42.506;24.192;2023-02-11T12:45:20;96684.59;;;8.02;25.56
61961;BME280;47923;42.506;24.192;2023-02-11T12:50:45;96685.03;;;7.87;25.85
61961;BME280;47923;42.506;24.192;2023-02-11T12:55:52;96524.47;;;6.55;26.00
61961;BME280;47923;42.506;24.192;2023-02-11T12:58:23;96674.13;;;7.30;26.43
61961;BME280;47923;42.506;24.192;2023-02-11T13:00:54;96621.25;;;6.95;26.83
61961;BME280;47923;42.506;24.192;2023-02-11T13:03:29;96657.44;;;7.19;27.26
61961;BME280;47923;42.506;24.192;2023-02-11T13:06:03;96424.66;;;5.49;26.80
61961;BME280;47923;42.506;24.192;2023-02-11T13:08:32;96656.00;;;6.91;27.26
61961;BME280;47923;42.506;24.192;2023-02-11T13:11:01;96538.84;;;6.14;27.83
61961;BME280;47923;42.506;24.192;2023-02-11T13:13:35;96657.16;;;6.76;28.01
61961;BME280;47923;42.506;24.192;2023-02-11T13:16:06;96649.22;;;6.71;28.05
61961;BME280;47923;42.506;24.192;2023-02-11T13:21:48;96645.88;;;6.52;28.22
61961;BME280;47923;42.506;24.192;2023-02-11T13:24:21;96642.09;;;6.53;28.20
61961;BME280;47923;42.506;24.192;2023-02-11T13:26:53;96654.56;;;6.49;28.20
61961;BME280;47923;42.506;24.192;2023-02-11T13:29:32;96564.84;;;5.91;28.54
61961;BME280;47923;42.506;24.192;2023-02-11T13:32:12;96638.84;;;6.42;29.15
61961;BME280;47923;42.506;24.192;2023-02-11T13:40:19;96636.50;;;6.27;28.10
61961;BME280;47923;42.506;24.192;2023-02-11T13:45:41;96637.31;;;6.14;28.17
61961;BME280;47923;42.506;24.192;2023-02-11T13:48:21;96281.06;;;3.80;28.25
61961;BME280;47923;42.506;24.192;2023-02-11T13:50:50;96524.13;;;5.20;27.75
61961;BME280;47923;42.506;24.192;2023-02-11T13:53:17;96444.22;;;4.40;28.10
61961;BME280;47923;42.506;24.192;2023-02-11T13:55:49;96646.03;;;5.50;27.93
61961;BME280;47923;42.506;24.192;2023-02-11T13:58:33;96532.03;;;4.84;28.35
61961;BME280;47923;42.506;24.192;2023-02-11T14:01:01;96625.50;;;5.46;28.03
61961;BME280;47923;42.506;24.192;2023-02-11T14:03:32;96628.75;;;5.43;28.91
61961;BME280;47923;42.506;24.192;2023-02-11T14:06:22;96575.94;;;5.16;28.58
61961;BME280;47923;42.506;24.192;2023-02-11T14:22:27;96608.84;;;5.03;29.18
61961;BME280;47923;42.506;24.192;2023-02-11T14:27:30;96608.44;;;4.95;29.63
61961;BME280;47923;42.506;24.192;2023-02-11T14:41:40;96591.72;;;4.52;30.84
61961;BME280;47923;42.506;24.192;2023-02-11T14:44:22;96591.09;;;4.41;31.45
61961;BME280;47923;42.506;24.192;2023-02-11T14:46:50;96595.66;;;4.22;31.41
61961;BME280;47923;42.506;24.192;2023-02-11T14:49:27;96591.69;;;4.20;31.50
61961;BME280;47923;42.506;24.192;2023-02-11T14:51:58;96569.03;;;3.93;32.16
61961;BME280;47923;42.506;24.192;2023-02-11T14:54:26;96588.00;;;3.97;33.14
61961;BME280;47923;42.506;24.192;2023-02-11T14:57:05;96592.47;;;3.82;33.17
61961;BME280;47923;42.506;24.192;2023-02-11T14:59:31;96449.16;;;2.82;33.99
61961;BME280;47923;42.506;24.192;2023-02-11T15:01:56;96598.78;;;3.68;34.10
61961;BME280;47923;42.506;24.192;2023-02-11T15:04:30;96599.69;;;3.58;34.51
61961;BME280;47923;42.506;24.192;2023-02-11T15:07:01;96606.25;;;3.47;34.74
61961;BME280;47923;42.506;24.192;2023-02-11T15:09:43;96531.38;;;2.80;35.24
61961;BME280;47923;42.506;24.192;2023-02-11T15:14:46;96503.19;;;2.40;36.65
61961;BME280;47923;42.506;24.192;2023-02-11T15:17:15;96420.00;;;1.75;36.53
61961;BME280;47923;42.506;24.192;2023-02-11T15:19:46;96279.34;;;0.69;37.33
61961;BME280;47923;42.506;24.192;2023-02-11T15:22:27;96607.13;;;2.50;38.00
61961;BME280;47923;42.506;24.192;2023-02-11T15:27:42;96596.91;;;2.23;38.26
61961;BME280;47923;42.506;24.192;2023-02-11T15:30:31;96585.84;;;2.06;38.40
61961;BME280;47923;42.506;24.192;2023-02-11T15:33:01;96452.91;;;1.05;38.23
61961;BME280;47923;42.506;24.192;2023-02-11T15:35:33;96423.53;;;0.66;38.50
61961;BME280;47923;42.506;24.192;2023-02-11T15:37:59;96544.13;;;1.26;38.84